Time;durP1;ratioP1;P1;durP2;ratioP2;P2;SDS_P1;SDS_P2;PMS_P1;PMS_P2;Temp;Humidity;BMP_temperature;BMP_pressure;BME280_temperature;BME280_humidity;BME280_pressure;Samples;Min_cycle;Max_cycle;Signal;HPM_P1;HPM_P2
2022/07/11 00:01:31;;;;;;;6.15;2.28;;;17.60;77.60;;;;;;5010913;28;20120;-69
2022/07/11 00:03:56;;;;;;;6.55;1.85;;;17.60;77.80;;;;;;4996622;28;20117;-69
2022/07/11 00:06:22;;;;;;;3.47;1.55;;;17.60;78.10;;;;;;4992027;28;20039;-69
2022/07/11 00:08:47;;;;;;;3.42;1.67;;;17.60;78.20;;;;;;5004008;28;20132;-69
2022/07/11 00:11:13;;;;;;;5.57;1.60;;;17.60;78.40;;;;;;5011618;28;20030;-69
2022/07/11 00:13:38;;;;;;;6.28;2.72;;;17.60;78.30;;;;;;5009777;28;20073;-69
2022/07/11 00:16:04;;;;;;;5.68;2.15;;;17.60;78.70;;;;;;5011218;28;20111;-69
2022/07/11 00:18:30;;;;;;;4.20;1.80;;;17.60;78.80;;;;;;5009586;28;20062;-69
2022/07/11 00:20:55;;;;;;;6.95;1.98;;;17.60;78.80;;;;;;5008128;28;20062;-69
2022/07/11 00:23:21;;;;;;;8.48;1.98;;;17.60;78.80;;;;;;5002995;28;20062;-69
2022/07/11 00:25:47;;;;;;;3.30;1.48;;;17.50;79.00;;;;;;5012873;28;20452;-68
2022/07/11 00:28:13;;;;;;;6.07;1.70;;;17.50;79.20;;;;;;5013362;28;20030;-69
2022/07/11 00:30:38;;;;;;;4.93;1.83;;;17.40;79.10;;;;;;5013046;28;20022;-68
2022/07/11 00:33:04;;;;;;;4.50;1.83;;;17.40;79.30;;;;;;5014322;28;20029;-69
2022/07/11 00:35:30;;;;;;;6.50;1.67;;;17.40;79.50;;;;;;5010237;28;20612;-69
2022/07/11 00:37:55;;;;;;;6.70;2.55;;;17.40;79.60;;;;;;4999179;28;20040;-70
2022/07/11 00:40:21;;;;;;;10.45;2.83;;;17.30;79.80;;;;;;5014194;28;20026;-68
2022/07/11 00:42:46;;;;;;;11.60;2.30;;;17.30;80.10;;;;;;5014132;28;20057;-69
2022/07/11 00:45:12;;;;;;;5.30;1.80;;;17.20;80.30;;;;;;5013237;28;20021;-69
2022/07/11 00:47:37;;;;;;;4.30;1.70;;;17.20;80.40;;;;;;4995618;28;20026;-69
2022/07/11 00:50:04;;;;;;;9.07;2.53;;;17.20;80.60;;;;;;5014452;28;20018;-69
2022/07/11 00:52:30;;;;;;;10.07;2.75;;;17.20;80.80;;;;;;4995121;28;20536;-68
2022/07/11 00:54:56;;;;;;;5.82;1.77;;;17.10;80.90;;;;;;4995932;28;20026;-69
2022/07/11 00:57:23;;;;;;;5.28;1.80;;;17.10;81.00;;;;;;4999582;28;20444;-68
2022/07/11 00:59:49;;;;;;;5.30;1.67;;;17.10;81.10;;;;;;5011704;28;20037;-69
2022/07/11 01:02:14;;;;;;;5.82;1.88;;;17.10;81.10;;;;;;5014573;28;20029;-69
2022/07/11 01:04:40;;;;;;;4.70;1.70;;;17.00;81.20;;;;;;5012643;28;20117;-69
2022/07/11 01:07:06;;;;;;;8.45;2.03;;;17.00;81.40;;;;;;5014254;28;20470;-69
2022/07/11 01:09:31;;;;;;;5.78;1.73;;;16.90;81.50;;;;;;5001137;28;20050;-69
2022/07/11 01:11:57;;;;;;;5.85;1.48;;;16.90;81.70;;;;;;5006375;28;20524;-69
2022/07/11 01:14:24;;;;;;;5.70;1.90;;;16.90;81.80;;;;;;5006849;28;20037;-69
2022/07/11 01:16:51;;;;;;;3.53;1.40;;;16.80;82.00;;;;;;5002613;28;20485;-68
2022/07/11 01:19:17;;;;;;;7.35;1.90;;;16.80;82.20;;;;;;5008682;28;20518;-69
2022/07/11 01:21:45;;;;;;;4.38;2.03;;;16.80;82.40;;;;;;4998861;28;20401;-69
2022/07/11 01:24:11;;;;;;;4.80;1.60;;;16.70;82.50;;;;;;5013124;28;20036;-68
2022/07/11 01:26:37;;;;;;;5.85;1.92;;;16.70;82.70;;;;;;5011791;28;20018;-68
2022/07/11 01:29:14;;;;;;;9.15;1.90;;;16.70;82.80;;;;;;5007951;28;20037;-68
2022/07/11 01:31:43;;;;;;;5.32;2.25;;;16.60;83.10;;;;;;5010766;28;20511;-68
2022/07/11 01:34:09;;;;;;;4.50;1.75;;;16.50;83.20;;;;;;5008041;28;20034;-68
2022/07/11 01:36:35;;;;;;;6.28;1.67;;;16.50;83.50;;;;;;5012745;28;20497;-67
2022/07/11 01:39:01;;;;;;;4.32;1.83;;;16.50;83.70;;;;;;5012170;28;20026;-68
2022/07/11 01:41:26;;;;;;;6.82;2.50;;;16.50;83.80;;;;;;5009898;28;20026;-68
2022/07/11 01:43:52;;;;;;;7.35;1.90;;;16.40;83.80;;;;;;4996239;28;20576;-68
2022/07/11 01:46:19;;;;;;;4.15;1.73;;;16.40;84.20;;;;;;5004792;28;20022;-67
2022/07/11 01:48:45;;;;;;;5.40;1.70;;;16.30;84.30;;;;;;5005415;28;20038;-68
2022/07/11 01:51:10;;;;;;;3.22;1.42;;;16.40;84.30;;;;;;5002363;28;20516;-68
2022/07/11 01:53:37;;;;;;;6.30;2.63;;;16.30;84.50;;;;;;5012535;28;20115;-68
2022/07/11 01:56:02;;;;;;;4.38;1.83;;;16.30;84.60;;;;;;5012228;28;20056;-68
2022/07/11 01:58:30;;;;;;;9.85;2.05;;;16.20;85.00;;;;;;5011463;28;20026;-68
2022/07/11 02:00:56;;;;;;;6.95;1.95;;;16.10;85.00;;;;;;5001455;28;20022;-68
2022/07/11 02:03:22;;;;;;;7.97;2.40;;;16.10;85.10;;;;;;5011540;28;20104;-68
2022/07/11 02:05:47;;;;;;;4.78;1.83;;;16.10;85.60;;;;;;4996329;28;20466;-68
2022/07/11 02:08:13;;;;;;;2.60;1.42;;;16.00;85.60;;;;;;4994186;28;20470;-68
2022/07/11 02:10:47;;;;;;;8.05;2.25;;;16.00;85.60;;;;;;4996942;28;20385;-69
2022/07/11 02:13:14;;;;;;;3.47;2.00;;;16.00;85.80;;;;;;5013044;28;20033;-69
2022/07/11 02:15:41;;;;;;;7.07;1.70;;;16.00;85.70;;;;;;5013196;28;20076;-69
2022/07/11 02:18:08;;;;;;;7.88;1.98;;;16.00;86.00;;;;;;5012653;28;20508;-69
2022/07/11 02:20:34;;;;;;;7.75;2.08;;;15.90;86.20;;;;;;5006559;28;20037;-69
2022/07/11 02:23:01;;;;;;;4.63;1.60;;;15.90;87.00;;;;;;4993365;28;20506;-69
2022/07/11 02:25:27;;;;;;;9.13;1.95;;;15.90;86.60;;;;;;5009241;28;20105;-69
2022/07/11 02:27:53;;;;;;;8.18;2.15;;;15.90;86.60;;;;;;5011771;28;20061;-69
2022/07/11 02:30:18;;;;;;;6.20;2.20;;;15.80;87.10;;;;;;5011006;28;20054;-69
2022/07/11 02:32:44;;;;;;;6.90;1.90;;;15.80;87.10;;;;;;5001895;28;20053;-69
2022/07/11 02:35:10;;;;;;;8.85;1.95;;;15.70;87.40;;;;;;4995585;28;20480;-69
2022/07/11 02:37:35;;;;;;;6.22;1.85;;;15.70;87.50;;;;;;5010883;28;20034;-69
2022/07/11 02:40:01;;;;;;;7.43;2.25;;;15.70;87.80;;;;;;5010504;28;20021;-69
2022/07/11 02:42:26;;;;;;;4.57;2.40;;;15.60;88.10;;;;;;4992543;28;20032;-69
2022/07/11 02:44:52;;;;;;;7.60;1.85;;;15.60;88.00;;;;;;5002847;28;20080;-69
2022/07/11 02:47:18;;;;;;;4.22;1.45;;;15.60;88.00;;;;;;4993601;28;20030;-69
2022/07/11 02:49:43;;;;;;;7.28;1.85;;;15.60;88.30;;;;;;4993025;28;20038;-69
2022/07/11 02:52:10;;;;;;;6.20;2.40;;;15.60;88.30;;;;;;4992989;28;20037;-69
2022/07/11 02:54:36;;;;;;;4.97;1.98;;;15.60;88.20;;;;;;4997507;28;20104;-69
2022/07/11 02:57:02;;;;;;;6.78;1.67;;;15.60;88.60;;;;;;5009713;28;20493;-70
2022/07/11 02:59:27;;;;;;;5.43;1.75;;;15.60;88.50;;;;;;5012206;28;20018;-69
2022/07/11 03:01:54;;;;;;;10.38;3.08;;;15.50;88.80;;;;;;4996201;28;20460;-69
2022/07/11 03:04:19;;;;;;;5.88;2.30;;;15.50;88.80;;;;;;5012028;28;20029;-69
2022/07/11 03:06:45;;;;;;;6.82;2.25;;;15.60;88.90;;;;;;5010573;28;20034;-69
2022/07/11 03:09:10;;;;;;;6.22;2.25;;;15.50;88.90;;;;;;5004077;28;20393;-69
2022/07/11 03:11:36;;;;;;;6.32;1.98;;;15.50;89.00;;;;;;5011368;28;20025;-69
2022/07/11 03:14:02;;;;;;;6.38;1.90;;;15.50;89.20;;;;;;4995123;28;20034;-69
2022/07/11 03:16:28;;;;;;;8.60;2.45;;;15.50;89.30;;;;;;5004397;28;20042;-69
2022/07/11 03:18:54;;;;;;;6.85;1.90;;;15.50;89.40;;;;;;4996071;28;20026;-69
2022/07/11 03:21:19;;;;;;;4.55;1.90;;;15.50;89.40;;;;;;5003040;28;20148;-69
2022/07/11 03:23:45;;;;;;;5.28;1.60;;;15.50;89.50;;;;;;5010925;28;20112;-69
2022/07/11 03:26:11;;;;;;;6.00;2.03;;;15.60;89.60;;;;;;5002414;28;20109;-69
2022/07/11 03:28:36;;;;;;;6.80;2.33;;;15.60;89.60;;;;;;5007458;28;20061;-69
2022/07/11 03:31:02;;;;;;;7.97;2.15;;;15.60;89.80;;;;;;5010599;28;20436;-69
2022/07/11 03:33:28;;;;;;;6.30;2.08;;;15.60;89.90;;;;;;5013180;28;20599;-69
2022/07/11 03:35:53;;;;;;;4.32;2.03;;;15.50;90.00;;;;;;5010597;28;20026;-70
2022/07/11 03:38:20;;;;;;;7.45;2.53;;;15.60;89.90;;;;;;5011937;28;20032;-69
2022/07/11 03:40:46;;;;;;;4.28;1.88;;;15.60;89.90;;;;;;5009502;28;20037;-69
2022/07/11 03:43:12;;;;;;;5.60;1.83;;;15.60;89.90;;;;;;5011923;28;20030;-70
2022/07/11 03:45:38;;;;;;;7.53;2.13;;;15.60;90.00;;;;;;5004559;28;20026;-69
2022/07/11 03:48:05;;;;;;;6.82;1.90;;;15.60;90.00;;;;;;4996472;28;20033;-70
2022/07/11 03:50:30;;;;;;;7.65;2.67;;;15.60;90.00;;;;;;5006237;28;20395;-69
2022/07/11 03:52:56;;;;;;;5.70;2.50;;;15.60;90.00;;;;;;4992419;28;20061;-69
2022/07/11 03:55:22;;;;;;;6.78;2.03;;;15.60;90.00;;;;;;4997309;28;20046;-70
2022/07/11 03:57:48;;;;;;;8.40;2.63;;;15.60;90.10;;;;;;5014259;28;20503;-69
2022/07/11 04:00:14;;;;;;;9.13;2.60;;;15.60;90.20;;;;;;5013625;28;20048;-69
2022/07/11 04:02:40;;;;;;;8.65;2.78;;;15.50;90.20;;;;;;5005285;28;20038;-70
2022/07/11 04:05:06;;;;;;;5.43;2.25;;;15.50;90.20;;;;;;4996833;28;20057;-70
2022/07/11 04:07:32;;;;;;;9.23;2.00;;;15.50;90.30;;;;;;5013884;28;20049;-70
2022/07/11 04:09:58;;;;;;;5.75;2.10;;;15.50;90.20;;;;;;5013093;28;20501;-70
2022/07/11 04:12:23;;;;;;;6.28;1.83;;;15.60;90.30;;;;;;5013625;28;20026;-69
2022/07/11 04:14:49;;;;;;;6.68;2.58;;;15.60;90.30;;;;;;5015594;28;20060;-69
2022/07/11 04:17:15;;;;;;;8.25;2.47;;;15.50;90.30;;;;;;5013704;28;20052;-69
2022/07/11 04:19:42;;;;;;;8.35;2.50;;;15.50;90.40;;;;;;5015006;28;20026;-69
2022/07/11 04:22:08;;;;;;;6.28;1.90;;;15.50;90.50;;;;;;5001162;28;20424;-69
2022/07/11 04:24:33;;;;;;;5.28;2.20;;;15.50;90.50;;;;;;4996011;28;20026;-69
2022/07/11 04:27:18;;;;;;;8.50;2.83;;;15.50;90.50;;;;;;5010495;28;20080;-69
2022/07/11 04:29:43;;;;;;;7.25;2.20;;;15.50;90.50;;;;;;5016483;28;20763;-70
2022/07/11 04:32:09;;;;;;;4.47;1.90;;;15.60;90.60;;;;;;5014562;28;20029;-70
2022/07/11 04:34:34;;;;;;;5.40;2.38;;;15.60;90.60;;;;;;5009809;28;20026;-72
2022/07/11 04:37:00;;;;;;;4.75;1.90;;;15.60;90.50;;;;;;5010715;28;20069;-70
2022/07/11 04:39:25;;;;;;;4.60;1.92;;;15.60;90.60;;;;;;5004557;28;20507;-69
2022/07/11 04:41:51;;;;;;;5.80;2.20;;;15.50;90.70;;;;;;5005939;28;20031;-69
2022/07/11 04:44:16;;;;;;;5.40;2.13;;;15.60;90.70;;;;;;5012016;28;20504;-69
2022/07/11 04:46:42;;;;;;;5.15;2.22;;;15.60;90.70;;;;;;5027318;28;20033;-69
2022/07/11 04:49:08;;;;;;;5.07;2.15;;;15.60;90.80;;;;;;5015828;28;20030;-69
2022/07/11 04:51:34;;;;;;;5.30;2.28;;;15.50;90.80;;;;;;5007824;28;20555;-69
2022/07/11 04:54:00;;;;;;;4.13;2.10;;;15.50;91.00;;;;;;5006320;28;20026;-69
2022/07/11 04:56:25;;;;;;;12.48;2.17;;;15.60;90.90;;;;;;5003781;28;20085;-69
2022/07/11 04:58:51;;;;;;;7.82;1.83;;;15.60;90.80;;;;;;4995115;28;20496;-69
2022/07/11 05:01:17;;;;;;;6.00;2.30;;;15.60;91.20;;;;;;5004511;28;20435;-69
2022/07/11 05:03:42;;;;;;;7.07;2.30;;;15.60;91.00;;;;;;5013111;28;20428;-69
2022/07/11 05:06:08;;;;;;;7.65;2.15;;;15.60;91.10;;;;;;5010667;28;20458;-70
2022/07/11 05:08:36;;;;;;;4.97;1.58;;;15.60;91.10;;;;;;5000660;28;20125;-67
2022/07/11 05:11:03;;;;;;;12.23;2.88;;;15.70;91.10;;;;;;5002602;28;20018;-69
2022/07/11 05:13:29;;;;;;;5.43;1.90;;;15.70;91.20;;;;;;5010229;28;20389;-67
2022/07/11 05:15:54;;;;;;;3.17;1.88;;;15.70;91.10;;;;;;5003630;28;20049;-69
2022/07/11 05:18:20;;;;;;;6.28;1.95;;;15.80;91.00;;;;;;5005085;28;20034;-71
2022/07/11 05:20:45;;;;;;;5.07;2.20;;;15.90;91.00;;;;;;4999136;28;20030;-70
2022/07/11 05:23:11;;;;;;;5.03;1.88;;;15.90;91.00;;;;;;5013511;28;20022;-67
2022/07/11 05:25:36;;;;;;;6.57;2.05;;;15.90;91.10;;;;;;5007088;28;20026;-68
2022/07/11 05:28:02;;;;;;;5.80;2.40;;;15.80;91.10;;;;;;5009000;28;20022;-65
2022/07/11 05:30:28;;;;;;;5.40;1.95;;;15.80;91.30;;;;;;5013268;28;20030;-66
2022/07/11 05:32:53;;;;;;;6.28;2.80;;;15.80;91.30;;;;;;5012399;28;20085;-65
2022/07/11 05:35:19;;;;;;;6.68;2.53;;;15.90;91.30;;;;;;5010812;28;20030;-66
2022/07/11 05:37:44;;;;;;;6.25;1.98;;;15.80;91.30;;;;;;4994113;28;20031;-65
2022/07/11 05:40:10;;;;;;;6.00;1.75;;;15.90;91.40;;;;;;5012966;28;20046;-65
2022/07/11 05:42:35;;;;;;;7.38;2.35;;;16.00;91.40;;;;;;5013326;28;20029;-65
2022/07/11 05:45:01;;;;;;;6.07;2.10;;;16.00;91.50;;;;;;5012604;28;20392;-65
2022/07/11 05:47:27;;;;;;;7.88;2.03;;;16.00;91.50;;;;;;5013695;28;20026;-65
2022/07/11 05:50:10;;;;;;;6.75;2.05;;;16.10;91.50;;;;;;5011200;28;20559;-65
2022/07/11 05:52:36;;;;;;;4.07;1.65;;;16.20;91.50;;;;;;4995596;28;20061;-65
2022/07/11 05:55:02;;;;;;;5.80;2.25;;;16.20;91.50;;;;;;4995603;28;20473;-66
2022/07/11 05:57:27;;;;;;;8.05;2.15;;;16.30;91.60;;;;;;5011153;28;20030;-65
2022/07/11 05:59:53;;;;;;;8.57;3.15;;;16.30;91.60;;;;;;5017454;28;20026;-68
2022/07/11 06:02:18;;;;;;;6.53;2.00;;;16.30;91.60;;;;;;5009997;28;20034;-65
2022/07/11 06:04:44;;;;;;;5.88;2.25;;;16.40;91.70;;;;;;4997435;28;20049;-65
2022/07/11 06:07:10;;;;;;;9.95;2.47;;;16.50;91.60;;;;;;5009969;28;20200;-66
2022/07/11 06:09:36;;;;;;;5.82;2.20;;;16.60;91.60;;;;;;5002316;28;20042;-66
2022/07/11 06:12:01;;;;;;;5.88;2.22;;;16.60;91.70;;;;;;5008336;28;20033;-66
2022/07/11 06:14:27;;;;;;;7.47;2.20;;;16.60;91.70;;;;;;5001749;28;20050;-66
2022/07/11 06:16:53;;;;;;;8.65;2.40;;;16.70;91.70;;;;;;4997475;28;20033;-65
2022/07/11 06:19:18;;;;;;;9.48;2.35;;;16.80;91.60;;;;;;4995191;28;20062;-66
2022/07/11 06:21:44;;;;;;;11.48;2.83;;;16.80;91.70;;;;;;5004928;28;20034;-66
2022/07/11 06:24:10;;;;;;;7.78;2.58;;;16.90;91.70;;;;;;5003335;28;20404;-67
2022/07/11 06:26:36;;;;;;;5.65;2.30;;;17.00;91.60;;;;;;4999840;28;20034;-65
2022/07/11 06:29:02;;;;;;;5.68;2.03;;;17.10;91.60;;;;;;5010571;28;20132;-66
2022/07/11 06:31:28;;;;;;;4.07;2.20;;;17.10;91.50;;;;;;5008579;28;20424;-65
2022/07/11 06:33:57;;;;;;;6.43;2.38;;;17.20;91.50;;;;;;5007883;28;20030;-65
2022/07/11 06:36:24;;;;;;;4.88;1.90;;;17.30;91.50;;;;;;5004814;28;20052;-66
2022/07/11 06:38:50;;;;;;;7.75;2.05;;;17.40;91.40;;;;;;4994908;28;20030;-65
2022/07/11 06:41:15;;;;;;;7.53;2.92;;;17.40;91.30;;;;;;5003592;28;20477;-65
2022/07/11 06:43:41;;;;;;;6.13;2.28;;;17.50;91.20;;;;;;5005976;28;20034;-66
2022/07/11 06:46:07;;;;;;;6.45;2.38;;;17.50;91.20;;;;;;5006891;28;20040;-66
2022/07/11 06:48:32;;;;;;;9.23;2.80;;;17.60;91.20;;;;;;5006264;28;20026;-65
2022/07/11 06:50:58;;;;;;;7.65;2.45;;;17.70;91.20;;;;;;5000032;28;20022;-66
2022/07/11 06:53:23;;;;;;;5.53;2.28;;;17.70;91.10;;;;;;5008910;28;20028;-66
2022/07/11 06:55:49;;;;;;;7.65;2.08;;;17.80;91.00;;;;;;5003345;28;20038;-66
2022/07/11 06:58:31;;;;;;;7.70;2.60;;;17.80;91.00;;;;;;5012153;28;20030;-66
2022/07/11 07:01:02;;;;;;;8.15;2.60;;;17.80;91.00;;;;;;5004721;28;20370;-66
2022/07/11 07:03:28;;;;;;;6.82;2.55;;;17.90;91.00;;;;;;5000753;28;20112;-65
2022/07/11 07:05:56;;;;;;;8.05;2.40;;;17.90;91.00;;;;;;5007207;28;20025;-66
2022/07/11 07:08:27;;;;;;;5.53;2.63;;;18.00;91.00;;;;;;5006478;28;20045;-66
2022/07/11 07:10:53;;;;;;;9.75;2.22;;;18.10;90.80;;;;;;5007476;28;20099;-66
2022/07/11 07:13:20;;;;;;;5.95;2.20;;;18.10;90.70;;;;;;5009461;28;20033;-66
2022/07/11 07:15:46;;;;;;;5.47;2.03;;;18.20;90.70;;;;;;5007904;28;20033;-66
2022/07/11 07:18:12;;;;;;;10.13;2.42;;;18.20;90.60;;;;;;5005283;28;20033;-66
2022/07/11 07:20:38;;;;;;;7.70;2.35;;;18.30;90.50;;;;;;5000801;28;20046;-65
2022/07/11 07:23:03;;;;;;;5.13;1.95;;;18.30;90.50;;;;;;5008999;28;20104;-65
2022/07/11 07:25:29;;;;;;;7.55;2.20;;;18.40;90.40;;;;;;5005527;28;20460;-66
2022/07/11 07:27:55;;;;;;;8.15;2.22;;;18.50;90.40;;;;;;4992363;28;20030;-66
2022/07/11 07:30:20;;;;;;;7.75;2.38;;;18.60;90.40;;;;;;4996882;28;20033;-66
2022/07/11 07:32:46;;;;;;;6.70;2.72;;;18.80;90.20;;;;;;5002412;28;20486;-66
2022/07/11 07:35:12;;;;;;;5.47;2.20;;;18.90;90.00;;;;;;5006615;28;20092;-65
2022/07/11 07:37:37;;;;;;;5.43;2.38;;;19.10;89.80;;;;;;5004499;28;20045;-66
2022/07/11 07:40:04;;;;;;;5.60;1.85;;;19.10;89.40;;;;;;5015379;28;20179;-67
2022/07/11 07:42:29;;;;;;;7.13;2.10;;;19.20;88.50;;;;;;4998037;28;20045;-66
2022/07/11 07:44:55;;;;;;;6.20;1.85;;;19.20;88.50;;;;;;4994706;28;20018;-66
2022/07/11 07:47:20;;;;;;;5.35;2.35;;;19.30;88.40;;;;;;4998768;28;20031;-66
2022/07/11 07:49:46;;;;;;;7.25;2.00;;;19.40;88.20;;;;;;4993612;28;20073;-66
2022/07/11 07:52:12;;;;;;;8.07;2.30;;;19.40;87.80;;;;;;5000814;28;20027;-66
2022/07/11 07:54:37;;;;;;;5.60;1.98;;;19.40;87.50;;;;;;4994557;28;20037;-66
2022/07/11 07:57:03;;;;;;;11.27;2.35;;;19.40;87.80;;;;;;5005645;28;20033;-65
2022/07/11 07:59:29;;;;;;;8.00;2.30;;;19.40;87.70;;;;;;5010584;28;20029;-66
2022/07/11 08:01:54;;;;;;;11.65;2.42;;;19.40;87.70;;;;;;4987231;28;20033;-66
2022/07/11 08:04:20;;;;;;;6.15;2.00;;;19.40;87.50;;;;;;4991966;28;20069;-65
2022/07/11 08:06:45;;;;;;;6.80;1.95;;;19.40;87.30;;;;;;5004961;28;20120;-66
2022/07/11 08:09:12;;;;;;;7.25;3.28;;;19.40;86.90;;;;;;5007360;28;20533;-65
2022/07/11 08:11:37;;;;;;;7.20;1.98;;;19.50;87.20;;;;;;4995493;28;20473;-65
2022/07/11 08:14:04;;;;;;;4.60;2.28;;;19.50;87.10;;;;;;4992497;28;20038;-65
2022/07/11 08:16:31;;;;;;;7.90;2.40;;;19.50;87.10;;;;;;5008697;28;20041;-65
2022/07/11 08:19:03;;;;;;;5.22;2.42;;;19.60;86.70;;;;;;5009877;28;20034;-66
2022/07/11 08:21:30;;;;;;;5.80;2.33;;;19.60;86.50;;;;;;5002679;28;20052;-66
2022/07/11 08:23:56;;;;;;;9.90;2.35;;;19.70;86.60;;;;;;4992166;28;20081;-66
2022/07/11 08:26:22;;;;;;;9.40;2.47;;;19.70;86.40;;;;;;5001055;28;20030;-66
2022/07/11 08:28:48;;;;;;;5.35;2.00;;;19.70;86.20;;;;;;5009711;28;20037;-66
2022/07/11 08:31:14;;;;;;;7.47;2.22;;;19.80;86.00;;;;;;5001482;28;20085;-66
2022/07/11 08:33:40;;;;;;;5.78;2.03;;;19.80;85.80;;;;;;4999433;28;20045;-66
2022/07/11 08:36:06;;;;;;;8.32;2.10;;;19.90;85.70;;;;;;5007490;28;20389;-66
2022/07/11 08:38:32;;;;;;;8.52;3.13;;;19.90;85.80;;;;;;4991515;28;20157;-66
2022/07/11 08:40:57;;;;;;;8.68;2.03;;;19.90;85.20;;;;;;5002413;28;20109;-66
2022/07/11 08:43:28;;;;;;;5.68;1.73;;;19.90;85.70;;;;;;5011031;28;20025;-65
2022/07/11 08:45:55;;;;;;;5.88;2.30;;;20.00;85.20;;;;;;5001102;28;20052;-65
2022/07/11 08:48:22;;;;;;;6.82;2.03;;;20.10;85.10;;;;;;5012419;28;20377;-65
2022/07/11 08:50:49;;;;;;;6.75;1.70;;;20.20;84.80;;;;;;5008107;28;20029;-66
2022/07/11 08:53:15;;;;;;;6.50;2.00;;;20.30;84.80;;;;;;5012488;28;20040;-66
2022/07/11 08:55:41;;;;;;;6.47;1.83;;;20.30;84.30;;;;;;5006946;28;20038;-66
2022/07/11 08:58:08;;;;;;;6.13;2.50;;;20.40;84.50;;;;;;4998198;28;20379;-66
2022/07/11 09:00:35;;;;;;;6.82;2.15;;;20.40;83.20;;;;;;5003497;28;20022;-66
2022/07/11 09:03:02;;;;;;;6.25;2.08;;;20.50;83.70;;;;;;5012159;28;20072;-66
2022/07/11 09:05:30;;;;;;;6.07;2.17;;;20.60;84.00;;;;;;5008874;28;20529;-66
2022/07/11 09:07:56;;;;;;;5.90;1.77;;;20.60;83.50;;;;;;5013181;28;20508;-66
2022/07/11 09:10:21;;;;;;;5.57;2.03;;;20.70;83.10;;;;;;5002565;28;20046;-65
2022/07/11 09:13:04;;;;;;;6.53;2.08;;;20.70;82.60;;;;;;4994985;28;20526;-65
2022/07/11 09:15:34;;;;;;;6.18;1.80;;;20.90;82.90;;;;;;5010365;28;20038;-65
2022/07/11 09:18:00;;;;;;;6.72;1.95;;;21.00;81.30;;;;;;5001029;28;20096;-65
2022/07/11 09:25:19;;;;;;;5.63;1.90;;;21.00;81.70;;;;;;5001497;28;20056;-65
2022/07/11 09:26:06;;;;;;;4.68;2.47;;;21.20;81.50;;;;;;4996306;28;20041;-65
2022/07/11 09:28:31;;;;;;;10.48;2.40;;;21.30;81.00;;;;;;5007503;28;20026;-64
2022/07/11 09:30:57;;;;;;;9.55;2.35;;;21.40;80.40;;;;;;5001044;28;20080;-64
2022/07/11 09:33:23;;;;;;;8.38;1.80;;;21.40;80.50;;;;;;5008917;28;20508;-65
2022/07/11 09:35:49;;;;;;;4.63;1.77;;;21.50;79.70;;;;;;5009992;28;20030;-65
2022/07/11 09:38:16;;;;;;;6.47;1.90;;;21.50;79.50;;;;;;5004469;28;20040;-64
2022/07/11 09:40:44;;;;;;;2.95;1.60;;;21.60;79.20;;;;;;4998015;28;20029;-65
2022/07/11 09:43:09;;;;;;;5.68;1.60;;;21.70;79.30;;;;;;5009759;28;20025;-65
2022/07/11 09:45:36;;;;;;;3.75;1.75;;;21.90;78.90;;;;;;5011224;28;20036;-64
2022/07/11 09:48:08;;;;;;;2.83;1.33;;;21.90;77.60;;;;;;5009858;28;20033;-65
2022/07/11 09:50:34;;;;;;;4.57;1.42;;;21.90;77.60;;;;;;5011024;28;20089;-65
2022/07/11 09:53:11;;;;;;;4.60;1.60;;;22.10;78.20;;;;;;5005300;28;20033;-64
2022/07/11 09:55:41;;;;;;;4.82;1.77;;;22.20;77.50;;;;;;5000340;28;20033;-65
2022/07/11 09:58:08;;;;;;;3.88;1.70;;;22.20;77.10;;;;;;5007733;28;20041;-63
2022/07/11 10:00:36;;;;;;;4.97;1.75;;;22.20;77.10;;;;;;5001914;28;20033;-65
2022/07/11 10:03:03;;;;;;;4.85;1.50;;;22.30;76.70;;;;;;5009689;28;20034;-65
2022/07/11 10:05:29;;;;;;;5.85;1.40;;;22.40;76.20;;;;;;5010056;28;20077;-65
2022/07/11 10:07:55;;;;;;;4.85;1.50;;;22.40;75.80;;;;;;5011826;28;20037;-64
2022/07/11 10:10:21;;;;;;;3.17;1.48;;;22.50;75.10;;;;;;5003950;28;20386;-64
2022/07/11 10:12:47;;;;;;;3.78;1.95;;;22.50;75.20;;;;;;5002661;28;20041;-65
2022/07/11 10:15:16;;;;;;;3.35;1.70;;;22.60;74.70;;;;;;5012269;28;20025;-65
2022/07/11 10:17:46;;;;;;;3.35;1.65;;;22.50;74.10;;;;;;5010481;28;20108;-65
2022/07/11 10:20:30;;;;;;;7.93;1.98;;;22.50;74.00;;;;;;4994308;28;20034;-65
2022/07/11 10:23:06;;;;;;;3.35;1.35;;;22.40;73.10;;;;;;5000224;28;20032;-65
2022/07/11 10:25:35;;;;;;;2.83;1.40;;;22.50;73.30;;;;;;4996942;28;20062;-64
2022/07/11 10:28:07;;;;;;;5.30;2.00;;;22.60;73.80;;;;;;5004459;28;20062;-64
2022/07/11 10:30:47;;;;;;;3.67;1.58;;;22.70;73.00;;;;;;5006633;28;20029;-64
2022/07/11 10:33:17;;;;;;;4.13;1.30;;;22.70;72.60;;;;;;5009013;28;20041;-64
2022/07/11 10:35:49;;;;;;;3.70;1.40;;;22.70;72.40;;;;;;5002357;28;20393;-64
2022/07/11 10:38:15;;;;;;;4.07;1.60;;;22.80;72.10;;;;;;5006679;28;20109;-64
2022/07/11 10:40:58;;;;;;;4.03;1.40;;;22.80;71.50;;;;;;4997729;28;20022;-64
2022/07/11 10:43:38;;;;;;;3.35;1.20;;;22.80;72.40;;;;;;5009842;28;20038;-65
2022/07/11 10:46:09;;;;;;;4.45;1.65;;;22.90;71.50;;;;;;5010945;28;20029;-65
2022/07/11 10:49:01;;;;;;;5.82;1.40;;;22.90;71.30;;;;;;5008738;28;20119;-65
2022/07/11 10:51:44;;;;;;;3.90;1.58;;;23.00;71.40;;;;;;5007892;28;20033;-65
2022/07/11 10:54:19;;;;;;;5.18;1.65;;;23.00;70.20;;;;;;5009495;28;20037;-64
2022/07/11 10:57:02;;;;;;;5.22;1.75;;;23.00;69.30;;;;;;5005492;28;20042;-65
2022/07/11 10:59:27;;;;;;;2.67;1.63;;;23.10;69.20;;;;;;5000311;28;20026;-65
2022/07/11 11:02:10;;;;;;;4.30;1.83;;;23.10;69.70;;;;;;5009384;28;20034;-65
2022/07/11 11:04:49;;;;;;;2.63;1.10;;;23.10;69.30;;;;;;5005644;28;20025;-65
2022/07/11 11:07:27;;;;;;;4.03;1.30;;;23.20;69.90;;;;;;5009048;28;20037;-65
2022/07/11 11:09:53;;;;;;;3.50;1.60;;;23.20;68.30;;;;;;4996848;28;20042;-65
2022/07/11 11:12:18;;;;;;;3.03;1.15;;;23.30;68.30;;;;;;4997208;28;20438;-65
2022/07/11 11:14:44;;;;;;;3.92;1.45;;;23.30;67.40;;;;;;4994671;28;20100;-65
2022/07/11 11:17:38;;;;;;;2.35;1.20;;;23.30;66.50;;;;;;5005362;28;20571;-65
2022/07/11 11:20:05;;;;;;;3.95;1.25;;;23.40;65.90;;;;;;4992732;28;20038;-65
2022/07/11 11:22:30;;;;;;;3.72;1.27;;;23.30;66.10;;;;;;5001690;28;20418;-65
2022/07/11 11:24:57;;;;;;;5.78;1.13;;;23.40;66.70;;;;;;5003160;28;20034;-65
2022/07/11 11:27:26;;;;;;;1.88;1.00;;;23.50;65.70;;;;;;5008659;28;20057;-65
2022/07/11 11:29:54;;;;;;;2.45;1.10;;;23.50;65.90;;;;;;5005368;28;20026;-65
2022/07/11 11:32:21;;;;;;;1.65;1.15;;;23.60;65.70;;;;;;5002450;28;20056;-65
2022/07/11 11:34:47;;;;;;;4.70;1.23;;;23.60;65.40;;;;;;5008907;28;20030;-65
2022/07/11 11:37:16;;;;;;;2.13;1.10;;;23.70;65.60;;;;;;5004883;28;20552;-66
2022/07/11 11:39:42;;;;;;;3.08;1.45;;;23.80;64.50;;;;;;5002371;28;20026;-66
2022/07/11 11:42:11;;;;;;;2.72;1.27;;;23.80;64.60;;;;;;5007478;28;20118;-66
2022/07/11 11:44:51;;;;;;;2.85;1.33;;;23.70;63.10;;;;;;5010920;28;20371;-65
2022/07/11 11:47:16;;;;;;;3.33;1.23;;;23.60;63.70;;;;;;5008961;28;20038;-65
2022/07/11 11:49:44;;;;;;;1.60;1.10;;;23.60;63.00;;;;;;5010465;28;20033;-65
2022/07/11 11:52:10;;;;;;;2.90;1.00;;;23.70;63.40;;;;;;5008060;28;20048;-65
2022/07/11 11:54:36;;;;;;;2.50;1.13;;;23.80;62.50;;;;;;5001327;28;20033;-64
2022/07/11 11:57:10;;;;;;;4.65;1.60;;;23.80;62.30;;;;;;5001193;28;20033;-63
2022/07/11 11:59:37;;;;;;;1.92;1.13;;;23.90;62.80;;;;;;5007055;28;20022;-64
2022/07/11 12:02:03;;;;;;;3.25;1.10;;;24.00;62.70;;;;;;5009368;28;20061;-64
2022/07/11 12:04:33;;;;;;;3.53;1.05;;;24.10;62.60;;;;;;5004591;28;20493;-64
2022/07/11 12:07:01;;;;;;;2.67;1.23;;;24.00;62.10;;;;;;5009369;28;20044;-65
2022/07/11 12:14:56;;;;;;;;;;;24.00;62.30;;;;;;4995949;28;20037;-66
2022/07/11 12:17:26;;;;;;;4.60;1.20;;;24.00;62.90;;;;;;5023804;28;19918;-68
2022/07/11 12:19:52;;;;;;;4.53;1.20;;;24.20;62.30;;;;;;5008978;28;20029;-66
2022/07/11 12:22:18;;;;;;;2.67;1.20;;;24.30;62.30;;;;;;5012620;28;20034;-66
2022/07/11 12:24:50;;;;;;;2.65;0.95;;;24.30;62.20;;;;;;5012601;28;20196;-66
2022/07/11 12:27:24;;;;;;;2.20;1.42;;;24.40;62.40;;;;;;5011026;28;20026;-66
2022/07/11 12:29:50;;;;;;;4.75;1.70;;;24.40;62.50;;;;;;5009454;28;20380;-65
2022/07/11 12:32:18;;;;;;;2.85;1.52;;;24.40;61.70;;;;;;5006659;28;20469;-65
2022/07/11 12:34:46;;;;;;;1.55;1.10;;;24.30;60.20;;;;;;5013252;28;20030;-66
2022/07/11 12:37:14;;;;;;;3.53;1.30;;;24.40;61.20;;;;;;5005145;28;20045;-66
2022/07/11 12:40:00;;;;;;;3.78;0.88;;;24.50;60.60;;;;;;4994513;28;20422;-66
2022/07/11 12:42:30;;;;;;;2.80;1.10;;;24.60;59.30;;;;;;5001912;28;20045;-66
2022/07/11 12:44:59;;;;;;;2.40;1.30;;;24.70;59.10;;;;;;5008416;28;20421;-66
2022/07/11 12:47:29;;;;;;;2.05;1.25;;;24.70;59.90;;;;;;5012639;28;20049;-66
2022/07/11 12:49:57;;;;;;;2.85;1.40;;;24.70;59.00;;;;;;5006351;28;20025;-67
2022/07/11 12:52:23;;;;;;;2.47;1.20;;;24.90;59.60;;;;;;5007411;28;20425;-66
2022/07/11 12:54:50;;;;;;;2.53;0.95;;;25.00;59.30;;;;;;5011254;28;20054;-66